sensor_id;sensor_type;location;lat;lon;timestamp;P1;durP1;ratioP1;P2;durP2;ratioP2
11797;SDS011;5956;51.428;6.682;2023-04-03T00:00:03;9.63;;;8.73;;
11797;SDS011;5956;51.428;6.682;2023-04-03T00:02:30;10.47;;;8.73;;
11797;SDS011;5956;51.428;6.682;2023-04-03T00:04:56;12.17;;;9.13;;
11797;SDS011;5956;51.428;6.682;2023-04-03T00:07:22;9.30;;;8.40;;
11797;SDS011;5956;51.428;6.682;2023-04-03T00:09:50;9.83;;;8.53;;
11797;SDS011;5956;51.428;6.682;2023-04-03T00:12:17;10.63;;;8.73;;
11797;SDS011;5956;51.428;6.682;2023-04-03T00:14:43;8.80;;;8.00;;
11797;SDS011;5956;51.428;6.682;2023-04-03T00:17:10;8.93;;;8.03;;
11797;SDS011;5956;51.428;6.682;2023-04-03T00:19:36;8.43;;;7.73;;
11797;SDS011;5956;51.428;6.682;2023-04-03T00:22:03;11.70;;;8.37;;
11797;SDS011;5956;51.428;6.682;2023-04-03T00:24:29;9.53;;;8.20;;
11797;SDS011;5956;51.428;6.682;2023-04-03T00:26:57;9.20;;;8.40;;
11797;SDS011;5956;51.428;6.682;2023-04-03T00:29:23;8.77;;;7.83;;
11797;SDS011;5956;51.428;6.682;2023-04-03T00:31:50;8.60;;;7.30;;
11797;SDS011;5956;51.428;6.682;2023-04-03T00:34:16;8.20;;;7.50;;
11797;SDS011;5956;51.428;6.682;2023-04-03T00:36:43;8.07;;;7.37;;
11797;SDS011;5956;51.428;6.682;2023-04-03T00:39:09;8.73;;;7.50;;
11797;SDS011;5956;51.428;6.682;2023-04-03T00:41:36;8.40;;;7.70;;
11797;SDS011;5956;51.428;6.682;2023-04-03T00:46:45;8.47;;;7.77;;
11797;SDS011;5956;51.428;6.682;2023-04-03T00:49:11;9.23;;;7.83;;
11797;SDS011;5956;51.428;6.682;2023-04-03T00:51:38;8.53;;;7.40;;
11797;SDS011;5956;51.428;6.682;2023-04-03T00:54:05;7.63;;;6.93;;
11797;SDS011;5956;51.428;6.682;2023-04-03T00:56:33;8.53;;;7.27;;
11797;SDS011;5956;51.428;6.682;2023-04-03T00:59:03;7.67;;;6.77;;
11797;SDS011;5956;51.428;6.682;2023-04-03T01:01:31;7.87;;;7.10;;
11797;SDS011;5956;51.428;6.682;2023-04-03T01:03:59;8.00;;;6.90;;
11797;SDS011;5956;51.428;6.682;2023-04-03T01:06:28;7.27;;;6.60;;
11797;SDS011;5956;51.428;6.682;2023-04-03T01:08:57;7.63;;;6.47;;
11797;SDS011;5956;51.428;6.682;2023-04-03T01:11:25;8.00;;;7.20;;
11797;SDS011;5956;51.428;6.682;2023-04-03T01:13:51;7.53;;;6.83;;
11797;SDS011;5956;51.428;6.682;2023-04-03T01:16:18;7.40;;;6.70;;
11797;SDS011;5956;51.428;6.682;2023-04-03T01:18:45;8.10;;;7.27;;
11797;SDS011;5956;51.428;6.682;2023-04-03T01:24:09;7.53;;;6.73;;
11797;SDS011;5956;51.428;6.682;2023-04-03T01:26:37;10.33;;;6.93;;
11797;SDS011;5956;51.428;6.682;2023-04-03T01:29:05;7.87;;;6.73;;
11797;SDS011;5956;51.428;6.682;2023-04-03T01:34:02;7.53;;;6.83;;
11797;SDS011;5956;51.428;6.682;2023-04-03T01:36:30;8.93;;;6.83;;
11797;SDS011;5956;51.428;6.682;2023-04-03T01:38:57;7.27;;;6.47;;
11797;SDS011;5956;51.428;6.682;2023-04-03T01:41:24;7.07;;;6.00;;
11797;SDS011;5956;51.428;6.682;2023-04-03T01:43:51;9.07;;;6.77;;
11797;SDS011;5956;51.428;6.682;2023-04-03T01:46:18;9.60;;;6.37;;
11797;SDS011;5956;51.428;6.682;2023-04-03T01:48:44;7.60;;;6.10;;
11797;SDS011;5956;51.428;6.682;2023-04-03T01:51:12;10.03;;;6.47;;
11797;SDS011;5956;51.428;6.682;2023-04-03T01:53:39;8.37;;;6.03;;
11797;SDS011;5956;51.428;6.682;2023-04-03T01:56:05;7.20;;;5.83;;
11797;SDS011;5956;51.428;6.682;2023-04-03T01:58:32;7.70;;;5.77;;
11797;SDS011;5956;51.428;6.682;2023-04-03T02:00:58;6.97;;;6.33;;
11797;SDS011;5956;51.428;6.682;2023-04-03T02:03:25;7.57;;;6.13;;
11797;SDS011;5956;51.428;6.682;2023-04-03T02:05:51;8.27;;;5.87;;
11797;SDS011;5956;51.428;6.682;2023-04-03T02:08:19;8.20;;;5.80;;
11797;SDS011;5956;51.428;6.682;2023-04-03T02:10:46;7.50;;;5.50;;
11797;SDS011;5956;51.428;6.682;2023-04-03T02:13:13;7.00;;;5.30;;
11797;SDS011;5956;51.428;6.682;2023-04-03T02:15:39;7.63;;;5.67;;
11797;SDS011;5956;51.428;6.682;2023-04-03T02:18:06;6.67;;;6.00;;
11797;SDS011;5956;51.428;6.682;2023-04-03T02:20:32;7.33;;;5.60;;
11797;SDS011;5956;51.428;6.682;2023-04-03T02:22:59;8.47;;;5.47;;
11797;SDS011;5956;51.428;6.682;2023-04-03T02:25:27;5.93;;;5.20;;
11797;SDS011;5956;51.428;6.682;2023-04-03T02:27:53;8.93;;;5.50;;
11797;SDS011;5956;51.428;6.682;2023-04-03T02:30:20;6.20;;;4.47;;
11797;SDS011;5956;51.428;6.682;2023-04-03T02:32:46;5.73;;;5.13;;
11797;SDS011;5956;51.428;6.682;2023-04-03T02:35:13;6.87;;;5.27;;
11797;SDS011;5956;51.428;6.682;2023-04-03T02:37:39;6.53;;;4.70;;
11797;SDS011;5956;51.428;6.682;2023-04-03T02:40:06;7.17;;;4.80;;
11797;SDS011;5956;51.428;6.682;2023-04-03T02:42:34;6.13;;;4.53;;
11797;SDS011;5956;51.428;6.682;2023-04-03T02:45:01;7.43;;;4.90;;
11797;SDS011;5956;51.428;6.682;2023-04-03T02:47:27;8.40;;;4.77;;
11797;SDS011;5956;51.428;6.682;2023-04-03T02:49:54;6.40;;;4.53;;
11797;SDS011;5956;51.428;6.682;2023-04-03T02:52:20;5.80;;;4.70;;
11797;SDS011;5956;51.428;6.682;2023-04-03T02:54:47;4.47;;;4.07;;
11797;SDS011;5956;51.428;6.682;2023-04-03T02:57:13;5.57;;;4.47;;
11797;SDS011;5956;51.428;6.682;2023-04-03T02:59:41;5.77;;;4.13;;
11797;SDS011;5956;51.428;6.682;2023-04-03T03:02:09;4.50;;;4.10;;
11797;SDS011;5956;51.428;6.682;2023-04-03T03:04:36;5.03;;;4.47;;
11797;SDS011;5956;51.428;6.682;2023-04-03T03:07:02;6.43;;;4.60;;
11797;SDS011;5956;51.428;6.682;2023-04-03T03:09:29;5.83;;;4.03;;
11797;SDS011;5956;51.428;6.682;2023-04-03T03:11:55;7.37;;;4.60;;
11797;SDS011;5956;51.428;6.682;2023-04-03T03:14:22;4.87;;;4.20;;
11797;SDS011;5956;51.428;6.682;2023-04-03T03:16:50;5.53;;;3.43;;
11797;SDS011;5956;51.428;6.682;2023-04-03T03:19:16;4.53;;;3.30;;
11797;SDS011;5956;51.428;6.682;2023-04-03T03:21:43;5.20;;;3.67;;
11797;SDS011;5956;51.428;6.682;2023-04-03T03:24:09;4.60;;;3.60;;
11797;SDS011;5956;51.428;6.682;2023-04-03T03:26:37;3.77;;;3.33;;
11797;SDS011;5956;51.428;6.682;2023-04-03T03:29:03;5.20;;;3.43;;
11797;SDS011;5956;51.428;6.682;2023-04-03T03:31:29;4.47;;;3.97;;
11797;SDS011;5956;51.428;6.682;2023-04-03T03:33:57;9.27;;;3.60;;
11797;SDS011;5956;51.428;6.682;2023-04-03T03:36:24;5.20;;;4.20;;
11797;SDS011;5956;51.428;6.682;2023-04-03T03:38:50;6.27;;;4.07;;
11797;SDS011;5956;51.428;6.682;2023-04-03T03:41:17;5.90;;;3.67;;
11797;SDS011;5956;51.428;6.682;2023-04-03T03:43:43;4.07;;;3.37;;
11797;SDS011;5956;51.428;6.682;2023-04-03T03:46:10;3.47;;;3.13;;
11797;SDS011;5956;51.428;6.682;2023-04-03T03:48:36;7.87;;;3.70;;
11797;SDS011;5956;51.428;6.682;2023-04-03T03:51:04;5.37;;;3.27;;
11797;SDS011;5956;51.428;6.682;2023-04-03T03:53:31;4.30;;;2.90;;
11797;SDS011;5956;51.428;6.682;2023-04-03T03:55:57;4.17;;;2.97;;
11797;SDS011;5956;51.428;6.682;2023-04-03T03:58:24;5.03;;;3.47;;
11797;SDS011;5956;51.428;6.682;2023-04-03T04:00:50;4.13;;;3.23;;
11797;SDS011;5956;51.428;6.682;2023-04-03T04:03:17;5.53;;;3.40;;
11797;SDS011;5956;51.428;6.682;2023-04-03T04:05:43;4.23;;;3.03;;
11797;SDS011;5956;51.428;6.682;2023-04-03T04:08:11;4.57;;;3.00;;
11797;SDS011;5956;51.428;6.682;2023-04-03T04:10:38;4.20;;;2.87;;
11797;SDS011;5956;51.428;6.682;2023-04-03T04:13:04;6.00;;;2.90;;
11797;SDS011;5956;51.428;6.682;2023-04-03T04:15:31;5.90;;;2.97;;
11797;SDS011;5956;51.428;6.682;2023-04-03T04:17:57;7.67;;;2.83;;
11797;SDS011;5956;51.428;6.682;2023-04-03T04:20:24;4.43;;;2.97;;
11797;SDS011;5956;51.428;6.682;2023-04-03T04:22:50;3.53;;;2.43;;
11797;SDS011;5956;51.428;6.682;2023-04-03T04:25:18;3.80;;;2.50;;
11797;SDS011;5956;51.428;6.682;2023-04-03T04:27:45;5.10;;;2.83;;
11797;SDS011;5956;51.428;6.682;2023-04-03T04:30:11;5.20;;;3.37;;
11797;SDS011;5956;51.428;6.682;2023-04-03T04:32:38;4.23;;;3.00;;
11797;SDS011;5956;51.428;6.682;2023-04-03T04:35:05;3.87;;;3.00;;
11797;SDS011;5956;51.428;6.682;2023-04-03T04:37:31;6.27;;;3.00;;
11797;SDS011;5956;51.428;6.682;2023-04-03T04:39:58;4.53;;;3.00;;
11797;SDS011;5956;51.428;6.682;2023-04-03T04:42:26;5.20;;;2.77;;
11797;SDS011;5956;51.428;6.682;2023-04-03T04:44:52;7.07;;;2.63;;
11797;SDS011;5956;51.428;6.682;2023-04-03T04:47:19;5.33;;;2.70;;
11797;SDS011;5956;51.428;6.682;2023-04-03T04:49:45;7.33;;;2.80;;
11797;SDS011;5956;51.428;6.682;2023-04-03T04:52:12;5.77;;;3.23;;
11797;SDS011;5956;51.428;6.682;2023-04-03T04:54:39;4.00;;;2.20;;
11797;SDS011;5956;51.428;6.682;2023-04-03T04:57:05;4.50;;;2.63;;
11797;SDS011;5956;51.428;6.682;2023-04-03T04:59:33;3.80;;;2.50;;
11797;SDS011;5956;51.428;6.682;2023-04-03T05:01:59;5.13;;;2.70;;
11797;SDS011;5956;51.428;6.682;2023-04-03T05:04:26;4.97;;;2.50;;
11797;SDS011;5956;51.428;6.682;2023-04-03T05:06:52;5.67;;;2.77;;
11797;SDS011;5956;51.428;6.682;2023-04-03T05:09:19;5.83;;;3.07;;
11797;SDS011;5956;51.428;6.682;2023-04-03T05:11:46;7.13;;;3.63;;
11797;SDS011;5956;51.428;6.682;2023-04-03T05:14:12;7.00;;;3.33;;
11797;SDS011;5956;51.428;6.682;2023-04-03T05:16:40;6.60;;;3.50;;
11797;SDS011;5956;51.428;6.682;2023-04-03T05:19:06;6.70;;;3.40;;
11797;SDS011;5956;51.428;6.682;2023-04-03T05:21:33;4.37;;;2.97;;
11797;SDS011;5956;51.428;6.682;2023-04-03T05:24:00;4.63;;;2.93;;
11797;SDS011;5956;51.428;6.682;2023-04-03T05:26:28;7.30;;;3.33;;
11797;SDS011;5956;51.428;6.682;2023-04-03T05:28:54;7.53;;;3.37;;
11797;SDS011;5956;51.428;6.682;2023-04-03T05:31:21;6.77;;;3.30;;
11797;SDS011;5956;51.428;6.682;2023-04-03T05:33:49;5.20;;;3.17;;
11797;SDS011;5956;51.428;6.682;2023-04-03T05:36:15;8.30;;;3.40;;
11797;SDS011;5956;51.428;6.682;2023-04-03T05:38:42;7.37;;;3.10;;
11797;SDS011;5956;51.428;6.682;2023-04-03T05:41:09;6.80;;;3.60;;
11797;SDS011;5956;51.428;6.682;2023-04-03T05:43:35;6.57;;;3.50;;
11797;SDS011;5956;51.428;6.682;2023-04-03T05:46:03;8.03;;;3.37;;
11797;SDS011;5956;51.428;6.682;2023-04-03T05:48:30;7.20;;;3.43;;
11797;SDS011;5956;51.428;6.682;2023-04-03T05:50:58;5.03;;;3.57;;
11797;SDS011;5956;51.428;6.682;2023-04-03T05:53:26;7.87;;;3.60;;
11797;SDS011;5956;51.428;6.682;2023-04-03T05:55:53;7.70;;;3.80;;
11797;SDS011;5956;51.428;6.682;2023-04-03T05:58:20;7.97;;;4.03;;
11797;SDS011;5956;51.428;6.682;2023-04-03T06:00:47;11.03;;;3.53;;
11797;SDS011;5956;51.428;6.682;2023-04-03T06:03:13;5.97;;;3.73;;
11797;SDS011;5956;51.428;6.682;2023-04-03T06:05:40;7.20;;;3.70;;
11797;SDS011;5956;51.428;6.682;2023-04-03T06:08:08;4.63;;;3.00;;
11797;SDS011;5956;51.428;6.682;2023-04-03T06:10:35;5.90;;;3.60;;
11797;SDS011;5956;51.428;6.682;2023-04-03T06:13:01;7.03;;;3.43;;
11797;SDS011;5956;51.428;6.682;2023-04-03T06:15:28;7.63;;;3.50;;
11797;SDS011;5956;51.428;6.682;2023-04-03T06:17:54;5.73;;;3.03;;
11797;SDS011;5956;51.428;6.682;2023-04-03T06:20:21;7.97;;;4.07;;
11797;SDS011;5956;51.428;6.682;2023-04-03T06:22:47;7.40;;;3.30;;
11797;SDS011;5956;51.428;6.682;2023-04-03T06:25:16;4.90;;;3.33;;
11797;SDS011;5956;51.428;6.682;2023-04-03T06:27:43;6.37;;;3.20;;
11797;SDS011;5956;51.428;6.682;2023-04-03T06:30:10;4.80;;;3.07;;
11797;SDS011;5956;51.428;6.682;2023-04-03T06:32:37;5.83;;;3.30;;
11797;SDS011;5956;51.428;6.682;2023-04-03T06:35:04;7.80;;;3.20;;
11797;SDS011;5956;51.428;6.682;2023-04-03T06:37:31;4.63;;;3.00;;
11797;SDS011;5956;51.428;6.682;2023-04-03T06:39:58;6.20;;;3.20;;
11797;SDS011;5956;51.428;6.682;2023-04-03T06:42:26;6.03;;;3.07;;
11797;SDS011;5956;51.428;6.682;2023-04-03T06:44:53;6.87;;;3.17;;
11797;SDS011;5956;51.428;6.682;2023-04-03T06:47:19;3.57;;;2.90;;
11797;SDS011;5956;51.428;6.682;2023-04-03T06:49:46;4.30;;;2.97;;
11797;SDS011;5956;51.428;6.682;2023-04-03T06:52:12;7.97;;;2.80;;
11797;SDS011;5956;51.428;6.682;2023-04-03T06:54:39;5.03;;;2.83;;
11797;SDS011;5956;51.428;6.682;2023-04-03T06:57:06;7.47;;;3.27;;
11797;SDS011;5956;51.428;6.682;2023-04-03T06:59:34;5.90;;;3.00;;
11797;SDS011;5956;51.428;6.682;2023-04-03T07:02:01;5.07;;;3.00;;
11797;SDS011;5956;51.428;6.682;2023-04-03T07:04:28;4.43;;;2.93;;
11797;SDS011;5956;51.428;6.682;2023-04-03T07:06:54;8.57;;;3.37;;
11797;SDS011;5956;51.428;6.682;2023-04-03T07:09:21;6.27;;;3.30;;
11797;SDS011;5956;51.428;6.682;2023-04-03T07:11:48;6.80;;;3.80;;
11797;SDS011;5956;51.428;6.682;2023-04-03T07:14:14;7.17;;;3.20;;
11797;SDS011;5956;51.428;6.682;2023-04-03T07:16:42;6.40;;;3.73;;
11797;SDS011;5956;51.428;6.682;2023-04-03T07:19:08;6.00;;;3.33;;
11797;SDS011;5956;51.428;6.682;2023-04-03T07:21:35;6.63;;;3.10;;
11797;SDS011;5956;51.428;6.682;2023-04-03T07:24:01;6.13;;;3.10;;
11797;SDS011;5956;51.428;6.682;2023-04-03T07:26:28;6.03;;;3.27;;
11797;SDS011;5956;51.428;6.682;2023-04-03T07:28:55;5.23;;;2.93;;
11797;SDS011;5956;51.428;6.682;2023-04-03T07:31:22;4.33;;;2.90;;
11797;SDS011;5956;51.428;6.682;2023-04-03T07:33:49;6.90;;;2.93;;
11797;SDS011;5956;51.428;6.682;2023-04-03T07:36:17;5.57;;;3.00;;
11797;SDS011;5956;51.428;6.682;2023-04-03T07:38:44;4.40;;;2.80;;
11797;SDS011;5956;51.428;6.682;2023-04-03T07:41:11;8.57;;;3.10;;
11797;SDS011;5956;51.428;6.682;2023-04-03T07:43:38;6.17;;;3.07;;
11797;SDS011;5956;51.428;6.682;2023-04-03T07:46:06;6.37;;;3.27;;
11797;SDS011;5956;51.428;6.682;2023-04-03T07:48:32;6.23;;;2.93;;
11797;SDS011;5956;51.428;6.682;2023-04-03T07:51:02;4.57;;;2.70;;
11797;SDS011;5956;51.428;6.682;2023-04-03T07:53:29;7.43;;;3.10;;
11797;SDS011;5956;51.428;6.682;2023-04-03T07:55:56;6.90;;;3.07;;
11797;SDS011;5956;51.428;6.682;2023-04-03T07:58:22;7.40;;;3.40;;
11797;SDS011;5956;51.428;6.682;2023-04-03T08:00:49;4.27;;;2.53;;
11797;SDS011;5956;51.428;6.682;2023-04-03T08:03:16;4.03;;;2.50;;
11797;SDS011;5956;51.428;6.682;2023-04-03T08:05:43;2.90;;;2.40;;
11797;SDS011;5956;51.428;6.682;2023-04-03T08:08:11;4.37;;;3.10;;
11797;SDS011;5956;51.428;6.682;2023-04-03T08:10:38;8.63;;;3.20;;
11797;SDS011;5956;51.428;6.682;2023-04-03T08:13:05;5.50;;;2.77;;
11797;SDS011;5956;51.428;6.682;2023-04-03T08:15:32;4.83;;;2.20;;
11797;SDS011;5956;51.428;6.682;2023-04-03T08:17:59;5.93;;;2.30;;
11797;SDS011;5956;51.428;6.682;2023-04-03T08:20:26;5.43;;;2.97;;
11797;SDS011;5956;51.428;6.682;2023-04-03T08:22:52;3.67;;;2.73;;
11797;SDS011;5956;51.428;6.682;2023-04-03T08:25:21;5.33;;;2.80;;
11797;SDS011;5956;51.428;6.682;2023-04-03T08:27:47;4.03;;;2.40;;
11797;SDS011;5956;51.428;6.682;2023-04-03T08:30:14;5.50;;;2.27;;
11797;SDS011;5956;51.428;6.682;2023-04-03T08:32:40;4.67;;;2.50;;
11797;SDS011;5956;51.428;6.682;2023-04-03T08:35:08;8.63;;;2.83;;
11797;SDS011;5956;51.428;6.682;2023-04-03T08:37:35;2.87;;;2.07;;
11797;SDS011;5956;51.428;6.682;2023-04-03T08:40:01;3.00;;;2.33;;
11797;SDS011;5956;51.428;6.682;2023-04-03T08:42:33;3.53;;;2.20;;
11797;SDS011;5956;51.428;6.682;2023-04-03T08:45:04;3.43;;;2.33;;
11797;SDS011;5956;51.428;6.682;2023-04-03T08:47:35;2.70;;;2.13;;
11797;SDS011;5956;51.428;6.682;2023-04-03T08:50:04;2.40;;;2.10;;
11797;SDS011;5956;51.428;6.682;2023-04-03T08:52:34;3.40;;;2.30;;
11797;SDS011;5956;51.428;6.682;2023-04-03T08:55:02;4.37;;;2.60;;
11797;SDS011;5956;51.428;6.682;2023-04-03T08:57:30;4.03;;;2.33;;
11797;SDS011;5956;51.428;6.682;2023-04-03T08:59:59;7.00;;;2.60;;
11797;SDS011;5956;51.428;6.682;2023-04-03T09:02:28;2.93;;;2.57;;
11797;SDS011;5956;51.428;6.682;2023-04-03T09:04:57;2.20;;;1.90;;
11797;SDS011;5956;51.428;6.682;2023-04-03T09:07:25;3.43;;;2.00;;
11797;SDS011;5956;51.428;6.682;2023-04-03T09:09:56;3.90;;;1.80;;
11797;SDS011;5956;51.428;6.682;2023-04-03T09:12:26;5.77;;;1.80;;
11797;SDS011;5956;51.428;6.682;2023-04-03T09:14:59;3.33;;;1.90;;
11797;SDS011;5956;51.428;6.682;2023-04-03T09:17:40;2.20;;;1.67;;
11797;SDS011;5956;51.428;6.682;2023-04-03T09:20:15;3.40;;;2.07;;
11797;SDS011;5956;51.428;6.682;2023-04-03T09:22:45;3.73;;;1.63;;
11797;SDS011;5956;51.428;6.682;2023-04-03T09:25:12;2.30;;;1.70;;
11797;SDS011;5956;51.428;6.682;2023-04-03T09:27:39;3.20;;;2.20;;
11797;SDS011;5956;51.428;6.682;2023-04-03T09:30:08;2.43;;;1.83;;
11797;SDS011;5956;51.428;6.682;2023-04-03T09:32:38;3.90;;;1.80;;
11797;SDS011;5956;51.428;6.682;2023-04-03T09:35:10;2.43;;;1.50;;
11797;SDS011;5956;51.428;6.682;2023-04-03T09:37:43;1.60;;;1.37;;
11797;SDS011;5956;51.428;6.682;2023-04-03T09:43:24;3.00;;;1.77;;
11797;SDS011;5956;51.428;6.682;2023-04-03T09:45:52;3.10;;;1.90;;
11797;SDS011;5956;51.428;6.682;2023-04-03T09:48:19;3.47;;;1.67;;
11797;SDS011;5956;51.428;6.682;2023-04-03T09:50:56;2.73;;;1.60;;
11797;SDS011;5956;51.428;6.682;2023-04-03T09:53:28;1.40;;;1.30;;
11797;SDS011;5956;51.428;6.682;2023-04-03T09:55:55;2.80;;;1.43;;
11797;SDS011;5956;51.428;6.682;2023-04-03T09:58:26;1.67;;;1.27;;
11797;SDS011;5956;51.428;6.682;2023-04-03T10:00:58;2.17;;;0.73;;
11797;SDS011;5956;51.428;6.682;2023-04-03T10:03:26;1.70;;;1.10;;
11797;SDS011;5956;51.428;6.682;2023-04-03T10:05:53;1.57;;;1.30;;
11797;SDS011;5956;51.428;6.682;2023-04-03T10:08:21;2.70;;;1.50;;
11797;SDS011;5956;51.428;6.682;2023-04-03T10:11:04;1.63;;;1.20;;
11797;SDS011;5956;51.428;6.682;2023-04-03T10:13:31;1.27;;;1.10;;
11797;SDS011;5956;51.428;6.682;2023-04-03T10:16:00;1.53;;;1.00;;
11797;SDS011;5956;51.428;6.682;2023-04-03T10:18:29;1.43;;;1.10;;
11797;SDS011;5956;51.428;6.682;2023-04-03T10:20:59;1.53;;;1.30;;
11797;SDS011;5956;51.428;6.682;2023-04-03T10:23:29;2.20;;;1.30;;
11797;SDS011;5956;51.428;6.682;2023-04-03T10:26:01;2.37;;;1.20;;
11797;SDS011;5956;51.428;6.682;2023-04-03T10:28:30;1.63;;;1.30;;
11797;SDS011;5956;51.428;6.682;2023-04-03T10:30:58;2.50;;;1.40;;
11797;SDS011;5956;51.428;6.682;2023-04-03T10:33:34;2.23;;;1.30;;
11797;SDS011;5956;51.428;6.682;2023-04-03T10:36:06;1.77;;;0.90;;
11797;SDS011;5956;51.428;6.682;2023-04-03T10:38:39;2.13;;;1.13;;
11797;SDS011;5956;51.428;6.682;2023-04-03T10:41:08;1.37;;;1.20;;
11797;SDS011;5956;51.428;6.682;2023-04-03T10:43:39;1.53;;;1.10;;
11797;SDS011;5956;51.428;6.682;2023-04-03T10:46:09;2.97;;;1.50;;
11797;SDS011;5956;51.428;6.682;2023-04-03T10:48:46;2.90;;;1.37;;
11797;SDS011;5956;51.428;6.682;2023-04-03T10:51:16;1.63;;;1.53;;
11797;SDS011;5956;51.428;6.682;2023-04-03T10:53:50;1.70;;;1.00;;
11797;SDS011;5956;51.428;6.682;2023-04-03T10:56:19;1.50;;;1.40;;
11797;SDS011;5956;51.428;6.682;2023-04-03T10:58:48;2.30;;;1.33;;
11797;SDS011;5956;51.428;6.682;2023-04-03T11:01:16;2.33;;;1.40;;
11797;SDS011;5956;51.428;6.682;2023-04-03T11:03:47;1.50;;;1.40;;
11797;SDS011;5956;51.428;6.682;2023-04-03T11:06:17;2.00;;;1.47;;
11797;SDS011;5956;51.428;6.682;2023-04-03T11:08:45;1.63;;;1.50;;
11797;SDS011;5956;51.428;6.682;2023-04-03T11:11:18;2.27;;;1.30;;
11797;SDS011;5956;51.428;6.682;2023-04-03T11:13:48;1.43;;;1.30;;
11797;SDS011;5956;51.428;6.682;2023-04-03T11:16:19;1.97;;;1.37;;
11797;SDS011;5956;51.428;6.682;2023-04-03T11:18:49;2.90;;;1.57;;
11797;SDS011;5956;51.428;6.682;2023-04-03T11:21:19;3.10;;;1.50;;
11797;SDS011;5956;51.428;6.682;2023-04-03T11:23:47;1.83;;;1.30;;
11797;SDS011;5956;51.428;6.682;2023-04-03T11:26:14;1.97;;;1.70;;
11797;SDS011;5956;51.428;6.682;2023-04-03T11:28:41;3.30;;;1.30;;
11797;SDS011;5956;51.428;6.682;2023-04-03T11:31:11;5.07;;;2.43;;
11797;SDS011;5956;51.428;6.682;2023-04-03T11:33:44;1.70;;;1.60;;
11797;SDS011;5956;51.428;6.682;2023-04-03T11:36:17;4.60;;;1.30;;
11797;SDS011;5956;51.428;6.682;2023-04-03T11:38:46;2.57;;;1.70;;
11797;SDS011;5956;51.428;6.682;2023-04-03T11:41:13;2.77;;;1.60;;
11797;SDS011;5956;51.428;6.682;2023-04-03T11:43:41;1.97;;;1.80;;
11797;SDS011;5956;51.428;6.682;2023-04-03T11:46:08;2.43;;;1.70;;
11797;SDS011;5956;51.428;6.682;2023-04-03T11:48:43;1.50;;;1.30;;
11797;SDS011;5956;51.428;6.682;2023-04-03T11:53:53;3.90;;;1.60;;
11797;SDS011;5956;51.428;6.682;2023-04-03T11:56:31;3.13;;;1.97;;
11797;SDS011;5956;51.428;6.682;2023-04-03T12:01:46;2.43;;;1.80;;
11797;SDS011;5956;51.428;6.682;2023-04-03T12:04:13;1.60;;;1.33;;
11797;SDS011;5956;51.428;6.682;2023-04-03T12:06:51;2.47;;;1.70;;
11797;SDS011;5956;51.428;6.682;2023-04-03T12:09:25;3.30;;;2.07;;
11797;SDS011;5956;51.428;6.682;2023-04-03T12:11:52;5.00;;;2.97;;
11797;SDS011;5956;51.428;6.682;2023-04-03T12:14:20;3.10;;;1.53;;
11797;SDS011;5956;51.428;6.682;2023-04-03T12:16:48;3.33;;;2.00;;
11797;SDS011;5956;51.428;6.682;2023-04-03T12:19:32;3.73;;;1.90;;
11797;SDS011;5956;51.428;6.682;2023-04-03T12:22:13;3.60;;;2.07;;
11797;SDS011;5956;51.428;6.682;2023-04-03T12:24:42;5.03;;;2.00;;
11797;SDS011;5956;51.428;6.682;2023-04-03T12:27:16;4.00;;;2.17;;
11797;SDS011;5956;51.428;6.682;2023-04-03T12:29:46;23.73;;;8.67;;
11797;SDS011;5956;51.428;6.682;2023-04-03T12:32:16;2.40;;;2.20;;
11797;SDS011;5956;51.428;6.682;2023-04-03T12:34:57;2.00;;;1.53;;
11797;SDS011;5956;51.428;6.682;2023-04-03T12:37:37;2.33;;;1.60;;
11797;SDS011;5956;51.428;6.682;2023-04-03T12:40:09;3.00;;;1.60;;
11797;SDS011;5956;51.428;6.682;2023-04-03T12:42:47;1.73;;;1.27;;
11797;SDS011;5956;51.428;6.682;2023-04-03T12:45:20;3.37;;;1.27;;
11797;SDS011;5956;51.428;6.682;2023-04-03T12:47:47;1.70;;;1.40;;
11797;SDS011;5956;51.428;6.682;2023-04-03T12:50:18;3.23;;;1.57;;
11797;SDS011;5956;51.428;6.682;2023-04-03T12:52:47;2.30;;;1.50;;
11797;SDS011;5956;51.428;6.682;2023-04-03T12:55:18;2.93;;;1.80;;
11797;SDS011;5956;51.428;6.682;2023-04-03T12:57:45;1.70;;;1.60;;
11797;SDS011;5956;51.428;6.682;2023-04-03T13:00:18;2.87;;;1.50;;
11797;SDS011;5956;51.428;6.682;2023-04-03T13:02:45;3.17;;;1.50;;
11797;SDS011;5956;51.428;6.682;2023-04-03T13:05:15;3.60;;;1.40;;
11797;SDS011;5956;51.428;6.682;2023-04-03T13:07:42;5.10;;;1.47;;
11797;SDS011;5956;51.428;6.682;2023-04-03T13:10:13;1.93;;;1.60;;
11797;SDS011;5956;51.428;6.682;2023-04-03T13:12:46;3.40;;;1.70;;
11797;SDS011;5956;51.428;6.682;2023-04-03T13:15:15;1.47;;;1.33;;
11797;SDS011;5956;51.428;6.682;2023-04-03T13:17:43;2.93;;;1.53;;
11797;SDS011;5956;51.428;6.682;2023-04-03T13:20:11;3.83;;;1.60;;
11797;SDS011;5956;51.428;6.682;2023-04-03T13:22:38;1.80;;;1.70;;
11797;SDS011;5956;51.428;6.682;2023-04-03T13:25:09;2.40;;;1.70;;
11797;SDS011;5956;51.428;6.682;2023-04-03T13:27:39;2.77;;;1.50;;
11797;SDS011;5956;51.428;6.682;2023-04-03T13:30:18;1.67;;;1.57;;
11797;SDS011;5956;51.428;6.682;2023-04-03T13:32:46;3.63;;;1.70;;
11797;SDS011;5956;51.428;6.682;2023-04-03T13:38:01;1.57;;;1.47;;
11797;SDS011;5956;51.428;6.682;2023-04-03T13:40:27;3.20;;;1.53;;
11797;SDS011;5956;51.428;6.682;2023-04-03T13:43:05;3.50;;;1.53;;
11797;SDS011;5956;51.428;6.682;2023-04-03T13:45:34;1.40;;;1.30;;
11797;SDS011;5956;51.428;6.682;2023-04-03T13:48:08;1.60;;;1.50;;
11797;SDS011;5956;51.428;6.682;2023-04-03T13:50:48;2.78;;;1.60;;
11797;SDS011;5956;51.428;6.682;2023-04-03T13:53:16;3.28;;;1.65;;
11797;SDS011;5956;51.428;6.682;2023-04-03T13:55:52;2.67;;;1.70;;
11797;SDS011;5956;51.428;6.682;2023-04-03T13:58:22;1.65;;;1.55;;
11797;SDS011;5956;51.428;6.682;2023-04-03T14:00:51;4.03;;;1.42;;
11797;SDS011;5956;51.428;6.682;2023-04-03T14:03:19;2.25;;;1.70;;
11797;SDS011;5956;51.428;6.682;2023-04-03T14:05:47;2.10;;;1.55;;
11797;SDS011;5956;51.428;6.682;2023-04-03T14:08:14;2.55;;;1.60;;
11797;SDS011;5956;51.428;6.682;2023-04-03T14:10:41;2.33;;;1.60;;
11797;SDS011;5956;51.428;6.682;2023-04-03T14:13:09;3.15;;;1.67;;
11797;SDS011;5956;51.428;6.682;2023-04-03T14:15:36;1.60;;;1.50;;
11797;SDS011;5956;51.428;6.682;2023-04-03T14:18:04;2.33;;;1.52;;
11797;SDS011;5956;51.428;6.682;2023-04-03T14:20:30;1.98;;;1.60;;
11797;SDS011;5956;51.428;6.682;2023-04-03T14:22:57;1.80;;;1.70;;
11797;SDS011;5956;51.428;6.682;2023-04-03T14:25:23;1.40;;;1.25;;
11797;SDS011;5956;51.428;6.682;2023-04-03T14:27:51;3.67;;;2.05;;
11797;SDS011;5956;51.428;6.682;2023-04-03T14:30:20;3.72;;;1.58;;
11797;SDS011;5956;51.428;6.682;2023-04-03T14:32:47;2.67;;;1.52;;
11797;SDS011;5956;51.428;6.682;2023-04-03T14:35:15;2.72;;;1.70;;
11797;SDS011;5956;51.428;6.682;2023-04-03T14:37:42;2.60;;;1.42;;
11797;SDS011;5956;51.428;6.682;2023-04-03T14:40:11;4.53;;;2.03;;
11797;SDS011;5956;51.428;6.682;2023-04-03T14:42:38;3.58;;;1.65;;
11797;SDS011;5956;51.428;6.682;2023-04-03T14:45:06;1.55;;;1.42;;
11797;SDS011;5956;51.428;6.682;2023-04-03T14:47:33;3.22;;;1.55;;
11797;SDS011;5956;51.428;6.682;2023-04-03T14:50:02;3.67;;;1.63;;
11797;SDS011;5956;51.428;6.682;2023-04-03T14:52:32;3.07;;;1.47;;
11797;SDS011;5956;51.428;6.682;2023-04-03T14:54:59;2.10;;;1.33;;
11797;SDS011;5956;51.428;6.682;2023-04-03T14:57:27;4.40;;;1.60;;
11797;SDS011;5956;51.428;6.682;2023-04-03T14:59:54;2.57;;;1.47;;
11797;SDS011;5956;51.428;6.682;2023-04-03T15:02:28;1.83;;;1.50;;
11797;SDS011;5956;51.428;6.682;2023-04-03T15:04:55;2.27;;;1.50;;
11797;SDS011;5956;51.428;6.682;2023-04-03T15:07:22;1.53;;;1.30;;
11797;SDS011;5956;51.428;6.682;2023-04-03T15:09:51;2.60;;;1.40;;
11797;SDS011;5956;51.428;6.682;2023-04-03T15:12:17;2.93;;;1.20;;
11797;SDS011;5956;51.428;6.682;2023-04-03T15:14:44;2.67;;;1.33;;
11797;SDS011;5956;51.428;6.682;2023-04-03T15:17:12;3.07;;;1.50;;
11797;SDS011;5956;51.428;6.682;2023-04-03T15:19:41;1.63;;;1.40;;
11797;SDS011;5956;51.428;6.682;2023-04-03T15:22:08;2.40;;;1.57;;
11797;SDS011;5956;51.428;6.682;2023-04-03T15:24:35;1.60;;;1.50;;